Terminal Aerodrome Forecast
Issued by NWS

Home | Current Version | Previous Version | Text Only | Print | Product List | Glossary On
Versions: 1 2 3 4 5 6 7 8 9 10 11 12 13 14 15 16
141
FTUS44 KSJT 281722
TAFSOA
TAF
KSOA 281722Z 2818/2918 VRB05KT P6SM SCT025
     FM282100 VRB04KT P6SM OVC100
     FM291700 VRB04KT P6SM BKN050=

USA.gov is the U.S. government's official web portal to all federal, state and local government web resources and services.